sensor_id;sensor_type;location;lat;lon;timestamp;pressure;altitude;pressure_sealevel;temperature;humidity
24762;BME280;12865;51.934;10.330;2022-09-09T00:00:13;98564.41;;;14.73;100.00
24762;BME280;12865;51.934;10.330;2022-09-09T00:03:17;98546.38;;;14.81;100.00
24762;BME280;12865;51.934;10.330;2022-09-09T00:06:42;98556.56;;;14.86;100.00
24762;BME280;12865;51.934;10.330;2022-09-09T00:09:38;98554.69;;;14.86;100.00
24762;BME280;12865;51.934;10.330;2022-09-09T00:16:17;98559.16;;;14.94;100.00
24762;BME280;12865;51.934;10.330;2022-09-09T00:19:08;98560.44;;;14.83;100.00
24762;BME280;12865;51.934;10.330;2022-09-09T00:22:18;98556.44;;;14.79;100.00
24762;BME280;12865;51.934;10.330;2022-09-09T00:25:11;98556.00;;;14.76;100.00
24762;BME280;12865;51.934;10.330;2022-09-09T00:28:01;98556.38;;;14.87;100.00
24762;BME280;12865;51.934;10.330;2022-09-09T00:30:47;98552.56;;;14.82;100.00
24762;BME280;12865;51.934;10.330;2022-09-09T00:33:36;98546.75;;;14.78;100.00
24762;BME280;12865;51.934;10.330;2022-09-09T00:36:26;98548.50;;;14.71;100.00
24762;BME280;12865;51.934;10.330;2022-09-09T00:39:37;98543.56;;;14.60;100.00
24762;BME280;12865;51.934;10.330;2022-09-09T00:42:41;98543.94;;;14.57;100.00
24762;BME280;12865;51.934;10.330;2022-09-09T00:48:54;98539.66;;;14.48;100.00
24762;BME280;12865;51.934;10.330;2022-09-09T00:57:51;98550.38;;;14.48;100.00
24762;BME280;12865;51.934;10.330;2022-09-09T01:00:51;98550.94;;;14.58;100.00
24762;BME280;12865;51.934;10.330;2022-09-09T01:03:41;98556.91;;;14.68;100.00
24762;BME280;12865;51.934;10.330;2022-09-09T01:06:36;98555.63;;;14.64;100.00
24762;BME280;12865;51.934;10.330;2022-09-09T01:09:38;98557.25;;;14.65;100.00
24762;BME280;12865;51.934;10.330;2022-09-09T01:12:43;98549.22;;;14.65;100.00
24762;BME280;12865;51.934;10.330;2022-09-09T01:15:32;98553.75;;;14.79;100.00
24762;BME280;12865;51.934;10.330;2022-09-09T01:18:22;98540.25;;;14.73;100.00
24762;BME280;12865;51.934;10.330;2022-09-09T01:27:03;98550.97;;;14.73;100.00
24762;BME280;12865;51.934;10.330;2022-09-09T01:29:50;98556.25;;;14.66;100.00
24762;BME280;12865;51.934;10.330;2022-09-09T01:32:39;98557.75;;;14.69;100.00
24762;BME280;12865;51.934;10.330;2022-09-09T01:35:42;98555.91;;;14.69;100.00
24762;BME280;12865;51.934;10.330;2022-09-09T01:38:31;98557.34;;;14.72;100.00
24762;BME280;12865;51.934;10.330;2022-09-09T01:41:18;98556.06;;;14.68;100.00
24762;BME280;12865;51.934;10.330;2022-09-09T01:44:03;98557.09;;;14.67;100.00
24762;BME280;12865;51.934;10.330;2022-09-09T01:46:50;98549.88;;;14.67;100.00
24762;BME280;12865;51.934;10.330;2022-09-09T01:49:36;98548.09;;;14.60;100.00
24762;BME280;12865;51.934;10.330;2022-09-09T01:52:22;98545.97;;;14.55;100.00
24762;BME280;12865;51.934;10.330;2022-09-09T01:55:08;98541.78;;;14.52;100.00
24762;BME280;12865;51.934;10.330;2022-09-09T02:01:20;98547.97;;;14.53;100.00
24762;BME280;12865;51.934;10.330;2022-09-09T02:07:38;98544.06;;;14.64;100.00
24762;BME280;12865;51.934;10.330;2022-09-09T02:10:43;98543.84;;;14.65;100.00
24762;BME280;12865;51.934;10.330;2022-09-09T02:13:32;98543.66;;;14.67;100.00
24762;BME280;12865;51.934;10.330;2022-09-09T02:16:28;98538.41;;;14.73;100.00
24762;BME280;12865;51.934;10.330;2022-09-09T02:19:37;98542.09;;;14.72;100.00
24762;BME280;12865;51.934;10.330;2022-09-09T02:22:27;98542.59;;;14.76;100.00
24762;BME280;12865;51.934;10.330;2022-09-09T02:25:15;98543.50;;;14.83;100.00
24762;BME280;12865;51.934;10.330;2022-09-09T02:28:07;98546.03;;;14.84;100.00
24762;BME280;12865;51.934;10.330;2022-09-09T02:30:55;98554.81;;;14.78;100.00
24762;BME280;12865;51.934;10.330;2022-09-09T02:33:45;98549.78;;;14.75;100.00
24762;BME280;12865;51.934;10.330;2022-09-09T02:36:34;98549.88;;;14.67;100.00
24762;BME280;12865;51.934;10.330;2022-09-09T02:39:21;98552.28;;;14.62;100.00
24762;BME280;12865;51.934;10.330;2022-09-09T02:42:07;98549.31;;;14.57;100.00
24762;BME280;12865;51.934;10.330;2022-09-09T02:44:53;98542.44;;;14.54;100.00
24762;BME280;12865;51.934;10.330;2022-09-09T02:51:01;98533.75;;;14.52;100.00
24762;BME280;12865;51.934;10.330;2022-09-09T02:57:04;98534.16;;;14.64;100.00
24762;BME280;12865;51.934;10.330;2022-09-09T02:59:52;98525.16;;;14.57;100.00
24762;BME280;12865;51.934;10.330;2022-09-09T03:02:38;98531.16;;;14.59;100.00
24762;BME280;12865;51.934;10.330;2022-09-09T03:05:24;98528.47;;;14.59;100.00
24762;BME280;12865;51.934;10.330;2022-09-09T03:08:11;98541.53;;;14.62;100.00
24762;BME280;12865;51.934;10.330;2022-09-09T03:10:59;98539.53;;;14.64;100.00
24762;BME280;12865;51.934;10.330;2022-09-09T03:13:46;98537.28;;;14.68;100.00
24762;BME280;12865;51.934;10.330;2022-09-09T03:16:32;98552.13;;;14.78;100.00
24762;BME280;12865;51.934;10.330;2022-09-09T03:19:20;98540.28;;;14.87;100.00
24762;BME280;12865;51.934;10.330;2022-09-09T03:22:07;98546.38;;;14.81;100.00
24762;BME280;12865;51.934;10.330;2022-09-09T03:24:53;98539.34;;;14.80;100.00
24762;BME280;12865;51.934;10.330;2022-09-09T03:27:39;98529.91;;;14.84;100.00
24762;BME280;12865;51.934;10.330;2022-09-09T03:30:26;98531.88;;;14.90;100.00
24762;BME280;12865;51.934;10.330;2022-09-09T03:33:12;98540.44;;;14.86;100.00
24762;BME280;12865;51.934;10.330;2022-09-09T03:35:58;98535.91;;;14.86;100.00
24762;BME280;12865;51.934;10.330;2022-09-09T03:38:43;98534.56;;;14.90;100.00
24762;BME280;12865;51.934;10.330;2022-09-09T03:41:29;98536.41;;;14.90;100.00
24762;BME280;12865;51.934;10.330;2022-09-09T03:44:15;98535.75;;;15.03;100.00
24762;BME280;12865;51.934;10.330;2022-09-09T03:47:01;98533.06;;;15.03;100.00
24762;BME280;12865;51.934;10.330;2022-09-09T03:49:47;98532.88;;;15.19;100.00
24762;BME280;12865;51.934;10.330;2022-09-09T03:52:38;98534.34;;;15.36;100.00
24762;BME280;12865;51.934;10.330;2022-09-09T03:55:24;98537.69;;;15.53;100.00
24762;BME280;12865;51.934;10.330;2022-09-09T03:58:09;98538.53;;;15.39;100.00
24762;BME280;12865;51.934;10.330;2022-09-09T04:00:58;98529.34;;;15.48;100.00
24762;BME280;12865;51.934;10.330;2022-09-09T04:03:44;98537.19;;;15.49;100.00
24762;BME280;12865;51.934;10.330;2022-09-09T04:06:30;98546.03;;;15.58;100.00
24762;BME280;12865;51.934;10.330;2022-09-09T04:09:15;98543.22;;;15.51;100.00
24762;BME280;12865;51.934;10.330;2022-09-09T04:12:01;98543.06;;;15.67;100.00
24762;BME280;12865;51.934;10.330;2022-09-09T04:14:47;98541.56;;;15.65;100.00
24762;BME280;12865;51.934;10.330;2022-09-09T04:17:33;98537.78;;;15.59;100.00
24762;BME280;12865;51.934;10.330;2022-09-09T04:20:18;98549.72;;;15.57;100.00
24762;BME280;12865;51.934;10.330;2022-09-09T04:23:04;98546.28;;;15.63;100.00
24762;BME280;12865;51.934;10.330;2022-09-09T04:25:53;98536.38;;;15.63;100.00
24762;BME280;12865;51.934;10.330;2022-09-09T04:28:39;98537.03;;;15.65;100.00
24762;BME280;12865;51.934;10.330;2022-09-09T04:31:25;98539.59;;;15.74;100.00
24762;BME280;12865;51.934;10.330;2022-09-09T04:34:11;98540.81;;;15.71;100.00
24762;BME280;12865;51.934;10.330;2022-09-09T04:36:56;98534.59;;;15.70;100.00
24762;BME280;12865;51.934;10.330;2022-09-09T04:39:42;98531.28;;;15.68;100.00
24762;BME280;12865;51.934;10.330;2022-09-09T04:42:28;98541.94;;;15.77;100.00
24762;BME280;12865;51.934;10.330;2022-09-09T04:45:13;98546.47;;;15.76;100.00
24762;BME280;12865;51.934;10.330;2022-09-09T04:47:59;98544.41;;;15.78;100.00
24762;BME280;12865;51.934;10.330;2022-09-09T04:50:56;98542.06;;;15.90;100.00
24762;BME280;12865;51.934;10.330;2022-09-09T04:53:43;98557.28;;;15.83;100.00
24762;BME280;12865;51.934;10.330;2022-09-09T04:56:28;98545.88;;;15.81;100.00
24762;BME280;12865;51.934;10.330;2022-09-09T04:59:14;98552.69;;;15.77;100.00
24762;BME280;12865;51.934;10.330;2022-09-09T05:02:00;98544.63;;;15.77;100.00
24762;BME280;12865;51.934;10.330;2022-09-09T05:04:47;98549.16;;;15.76;100.00
24762;BME280;12865;51.934;10.330;2022-09-09T05:07:35;98552.53;;;15.85;100.00
24762;BME280;12865;51.934;10.330;2022-09-09T05:10:21;98545.22;;;15.79;100.00
24762;BME280;12865;51.934;10.330;2022-09-09T05:13:07;98556.38;;;15.76;100.00
24762;BME280;12865;51.934;10.330;2022-09-09T05:15:54;98554.78;;;15.81;100.00
24762;BME280;12865;51.934;10.330;2022-09-09T05:18:40;98559.31;;;15.81;100.00
24762;BME280;12865;51.934;10.330;2022-09-09T05:21:28;98557.66;;;15.80;100.00
24762;BME280;12865;51.934;10.330;2022-09-09T05:24:13;98566.66;;;15.72;100.00
24762;BME280;12865;51.934;10.330;2022-09-09T05:26:59;98566.28;;;15.75;100.00
24762;BME280;12865;51.934;10.330;2022-09-09T05:29:47;98572.88;;;15.73;100.00
24762;BME280;12865;51.934;10.330;2022-09-09T05:32:33;98566.47;;;15.74;100.00
24762;BME280;12865;51.934;10.330;2022-09-09T05:35:19;98563.03;;;15.80;100.00
24762;BME280;12865;51.934;10.330;2022-09-09T05:38:05;98563.94;;;15.87;100.00
24762;BME280;12865;51.934;10.330;2022-09-09T05:40:52;98563.34;;;15.91;100.00
24762;BME280;12865;51.934;10.330;2022-09-09T05:43:38;98567.34;;;15.95;100.00
24762;BME280;12865;51.934;10.330;2022-09-09T05:46:24;98573.94;;;15.93;100.00
24762;BME280;12865;51.934;10.330;2022-09-09T05:49:10;98578.41;;;15.86;100.00
24762;BME280;12865;51.934;10.330;2022-09-09T05:51:56;98571.00;;;15.88;100.00
24762;BME280;12865;51.934;10.330;2022-09-09T05:54:41;98574.75;;;15.93;100.00
24762;BME280;12865;51.934;10.330;2022-09-09T05:57:28;98574.75;;;15.93;100.00
24762;BME280;12865;51.934;10.330;2022-09-09T06:00:13;98576.91;;;15.98;100.00
24762;BME280;12865;51.934;10.330;2022-09-09T06:03:00;98578.19;;;16.02;100.00
24762;BME280;12865;51.934;10.330;2022-09-09T06:05:46;98561.53;;;16.13;100.00
24762;BME280;12865;51.934;10.330;2022-09-09T06:08:36;98570.06;;;16.17;100.00
24762;BME280;12865;51.934;10.330;2022-09-09T06:11:26;98572.56;;;16.18;100.00
24762;BME280;12865;51.934;10.330;2022-09-09T06:14:12;98567.81;;;16.20;100.00
24762;BME280;12865;51.934;10.330;2022-09-09T06:16:58;98577.91;;;16.33;100.00
24762;BME280;12865;51.934;10.330;2022-09-09T06:19:43;98570.19;;;16.51;100.00
24762;BME280;12865;51.934;10.330;2022-09-09T06:22:29;98573.31;;;16.76;100.00
24762;BME280;12865;51.934;10.330;2022-09-09T06:25:15;98575.13;;;16.97;100.00
24762;BME280;12865;51.934;10.330;2022-09-09T06:28:01;98577.53;;;17.13;100.00
24762;BME280;12865;51.934;10.330;2022-09-09T06:30:47;98564.00;;;17.34;100.00
24762;BME280;12865;51.934;10.330;2022-09-09T06:33:38;98574.88;;;17.54;100.00
24762;BME280;12865;51.934;10.330;2022-09-09T06:36:29;98569.16;;;17.70;100.00
24762;BME280;12865;51.934;10.330;2022-09-09T06:39:14;98568.38;;;17.76;100.00
24762;BME280;12865;51.934;10.330;2022-09-09T06:42:00;98575.38;;;17.64;100.00
24762;BME280;12865;51.934;10.330;2022-09-09T06:44:46;98572.34;;;17.46;100.00
24762;BME280;12865;51.934;10.330;2022-09-09T06:47:32;98580.66;;;17.51;100.00
24762;BME280;12865;51.934;10.330;2022-09-09T06:50:19;98584.28;;;17.64;100.00
24762;BME280;12865;51.934;10.330;2022-09-09T06:53:05;98580.47;;;17.93;100.00
24762;BME280;12865;51.934;10.330;2022-09-09T06:55:51;98587.09;;;17.91;100.00
24762;BME280;12865;51.934;10.330;2022-09-09T06:58:39;98586.66;;;17.87;100.00
24762;BME280;12865;51.934;10.330;2022-09-09T07:01:32;98588.25;;;17.75;100.00
24762;BME280;12865;51.934;10.330;2022-09-09T07:04:17;98589.88;;;17.63;100.00
24762;BME280;12865;51.934;10.330;2022-09-09T07:07:03;98589.41;;;17.59;100.00
24762;BME280;12865;51.934;10.330;2022-09-09T07:09:49;98588.31;;;17.47;100.00
24762;BME280;12865;51.934;10.330;2022-09-09T07:12:35;98588.50;;;17.46;100.00
24762;BME280;12865;51.934;10.330;2022-09-09T07:15:21;98588.09;;;17.42;100.00
24762;BME280;12865;51.934;10.330;2022-09-09T07:18:08;98589.97;;;17.48;100.00
24762;BME280;12865;51.934;10.330;2022-09-09T07:20:56;98595.56;;;17.47;100.00
24762;BME280;12865;51.934;10.330;2022-09-09T07:23:42;98592.31;;;17.58;100.00
24762;BME280;12865;51.934;10.330;2022-09-09T07:26:30;98583.94;;;17.81;100.00
24762;BME280;12865;51.934;10.330;2022-09-09T07:29:16;98585.06;;;17.99;100.00
24762;BME280;12865;51.934;10.330;2022-09-09T07:32:01;98584.31;;;18.32;99.02
24762;BME280;12865;51.934;10.330;2022-09-09T07:34:49;98592.56;;;18.17;99.22
24762;BME280;12865;51.934;10.330;2022-09-09T07:37:37;98589.28;;;18.28;99.06
24762;BME280;12865;51.934;10.330;2022-09-09T07:40:22;98592.56;;;18.17;98.79
24762;BME280;12865;51.934;10.330;2022-09-09T07:43:08;98585.31;;;18.18;97.65
24762;BME280;12865;51.934;10.330;2022-09-09T07:45:58;98588.81;;;18.05;99.02
24762;BME280;12865;51.934;10.330;2022-09-09T07:48:47;98590.50;;;18.13;99.58
24762;BME280;12865;51.934;10.330;2022-09-09T07:51:42;98592.22;;;18.40;99.59
24762;BME280;12865;51.934;10.330;2022-09-09T07:54:28;98594.28;;;18.51;96.43
24762;BME280;12865;51.934;10.330;2022-09-09T07:57:13;98599.06;;;18.36;96.52
24762;BME280;12865;51.934;10.330;2022-09-09T08:00:01;98607.94;;;18.30;95.79
24762;BME280;12865;51.934;10.330;2022-09-09T08:02:47;98604.59;;;18.08;98.27
24762;BME280;12865;51.934;10.330;2022-09-09T08:05:33;98597.94;;;18.11;96.91
24762;BME280;12865;51.934;10.330;2022-09-09T08:08:19;98609.75;;;18.10;97.63
24762;BME280;12865;51.934;10.330;2022-09-09T08:11:08;98617.91;;;18.23;97.27
24762;BME280;12865;51.934;10.330;2022-09-09T08:13:55;98619.59;;;18.37;96.21
24762;BME280;12865;51.934;10.330;2022-09-09T08:16:43;98614.41;;;18.35;95.92
24762;BME280;12865;51.934;10.330;2022-09-09T08:19:29;98596.97;;;18.44;96.93
24762;BME280;12865;51.934;10.330;2022-09-09T08:22:15;98607.44;;;18.67;95.75
24762;BME280;12865;51.934;10.330;2022-09-09T08:25:01;98607.66;;;18.99;94.40
24762;BME280;12865;51.934;10.330;2022-09-09T08:27:47;98601.19;;;19.26;91.92
24762;BME280;12865;51.934;10.330;2022-09-09T08:30:33;98619.66;;;19.49;92.14
24762;BME280;12865;51.934;10.330;2022-09-09T08:33:19;98611.28;;;19.70;89.95
24762;BME280;12865;51.934;10.330;2022-09-09T08:36:06;98614.00;;;19.64;88.59
24762;BME280;12865;51.934;10.330;2022-09-09T08:38:54;98610.03;;;19.73;89.47
24762;BME280;12865;51.934;10.330;2022-09-09T08:44:55;98621.28;;;19.70;88.45
24762;BME280;12865;51.934;10.330;2022-09-09T08:50:38;98609.84;;;19.74;87.91
24762;BME280;12865;51.934;10.330;2022-09-09T08:53:28;98609.34;;;19.97;86.57
24762;BME280;12865;51.934;10.330;2022-09-09T08:56:21;98611.97;;;20.10;86.70
24762;BME280;12865;51.934;10.330;2022-09-09T08:59:11;98613.06;;;20.41;86.80
24762;BME280;12865;51.934;10.330;2022-09-09T09:02:23;98616.91;;;20.64;82.85
24762;BME280;12865;51.934;10.330;2022-09-09T09:05:32;98622.53;;;20.63;83.56
24762;BME280;12865;51.934;10.330;2022-09-09T09:08:38;98628.50;;;20.40;82.38
24762;BME280;12865;51.934;10.330;2022-09-09T09:11:33;98631.53;;;20.12;83.85
24762;BME280;12865;51.934;10.330;2022-09-09T09:14:21;98622.81;;;20.10;85.37
24762;BME280;12865;51.934;10.330;2022-09-09T09:17:17;98628.53;;;19.82;85.69
24762;BME280;12865;51.934;10.330;2022-09-09T09:20:13;98632.63;;;19.98;86.49
24762;BME280;12865;51.934;10.330;2022-09-09T09:23:02;98623.53;;;20.37;85.88
24762;BME280;12865;51.934;10.330;2022-09-09T09:25:50;98640.22;;;20.65;83.78
24762;BME280;12865;51.934;10.330;2022-09-09T09:28:39;98629.25;;;21.17;81.33
24762;BME280;12865;51.934;10.330;2022-09-09T09:31:25;98621.97;;;21.35;80.83
24762;BME280;12865;51.934;10.330;2022-09-09T09:34:12;98617.84;;;21.69;77.93
24762;BME280;12865;51.934;10.330;2022-09-09T09:36:59;98637.16;;;21.79;77.91
24762;BME280;12865;51.934;10.330;2022-09-09T09:39:48;98620.50;;;21.76;75.52
24762;BME280;12865;51.934;10.330;2022-09-09T09:42:34;98622.06;;;21.83;75.91
24762;BME280;12865;51.934;10.330;2022-09-09T09:45:28;98609.63;;;21.94;74.25
24762;BME280;12865;51.934;10.330;2022-09-09T09:48:14;98616.47;;;22.33;73.35
24762;BME280;12865;51.934;10.330;2022-09-09T09:51:05;98612.00;;;22.39;71.46
24762;BME280;12865;51.934;10.330;2022-09-09T09:53:53;98619.78;;;22.35;73.27
24762;BME280;12865;51.934;10.330;2022-09-09T09:56:40;98619.19;;;22.33;72.34
24762;BME280;12865;51.934;10.330;2022-09-09T09:59:36;98612.63;;;22.52;73.47
24762;BME280;12865;51.934;10.330;2022-09-09T10:02:25;98605.44;;;22.58;70.65
24762;BME280;12865;51.934;10.330;2022-09-09T10:05:13;98620.06;;;22.87;71.28
24762;BME280;12865;51.934;10.330;2022-09-09T10:08:20;98607.94;;;22.59;68.63
24762;BME280;12865;51.934;10.330;2022-09-09T10:11:23;98603.44;;;22.53;68.79
24762;BME280;12865;51.934;10.330;2022-09-09T10:14:41;98608.50;;;21.83;71.10
24762;BME280;12865;51.934;10.330;2022-09-09T10:17:37;98613.41;;;21.93;72.79
24762;BME280;12865;51.934;10.330;2022-09-09T10:21:02;98622.97;;;21.59;74.40
24762;BME280;12865;51.934;10.330;2022-09-09T10:35:53;98609.16;;;22.33;69.79
24762;BME280;12865;51.934;10.330;2022-09-09T10:38:48;98615.75;;;22.38;70.57
24762;BME280;12865;51.934;10.330;2022-09-09T10:41:59;98609.50;;;22.67;69.85
24762;BME280;12865;51.934;10.330;2022-09-09T10:45:47;98618.31;;;22.81;68.34
24762;BME280;12865;51.934;10.330;2022-09-09T10:55:02;98598.00;;;22.53;69.96
24762;BME280;12865;51.934;10.330;2022-09-09T10:57:55;98589.56;;;22.43;67.91
24762;BME280;12865;51.934;10.330;2022-09-09T11:00:54;98599.50;;;22.79;67.99
24762;BME280;12865;51.934;10.330;2022-09-09T11:03:42;98598.59;;;22.55;65.95
24762;BME280;12865;51.934;10.330;2022-09-09T11:06:34;98596.97;;;22.36;67.14
24762;BME280;12865;51.934;10.330;2022-09-09T11:09:28;98602.59;;;22.23;66.86
24762;BME280;12865;51.934;10.330;2022-09-09T11:12:19;98604.56;;;22.16;67.40
24762;BME280;12865;51.934;10.330;2022-09-09T11:15:12;98601.53;;;22.24;67.81
24762;BME280;12865;51.934;10.330;2022-09-09T11:18:04;98589.19;;;22.28;69.33
24762;BME280;12865;51.934;10.330;2022-09-09T11:20:59;98594.53;;;22.76;65.36
24762;BME280;12865;51.934;10.330;2022-09-09T11:23:52;98591.03;;;23.22;63.79
24762;BME280;12865;51.934;10.330;2022-09-09T11:26:51;98585.59;;;23.57;61.11
24762;BME280;12865;51.934;10.330;2022-09-09T11:29:49;98594.13;;;23.37;62.04
24762;BME280;12865;51.934;10.330;2022-09-09T11:32:53;98594.69;;;23.74;61.42
24762;BME280;12865;51.934;10.330;2022-09-09T11:38:47;98601.72;;;23.99;59.61
24762;BME280;12865;51.934;10.330;2022-09-09T11:41:36;98599.09;;;23.64;59.37
24762;BME280;12865;51.934;10.330;2022-09-09T11:44:29;98604.44;;;23.59;59.08
24762;BME280;12865;51.934;10.330;2022-09-09T11:47:27;98602.13;;;23.79;59.88
24762;BME280;12865;51.934;10.330;2022-09-09T11:53:23;98603.75;;;24.03;57.82
24762;BME280;12865;51.934;10.330;2022-09-09T11:56:13;98596.13;;;24.17;58.02
24762;BME280;12865;51.934;10.330;2022-09-09T11:59:02;98589.91;;;24.33;57.07
24762;BME280;12865;51.934;10.330;2022-09-09T12:01:54;98600.28;;;24.48;57.00
24762;BME280;12865;51.934;10.330;2022-09-09T12:05:10;98592.06;;;24.59;55.94
24762;BME280;12865;51.934;10.330;2022-09-09T12:07:58;98589.97;;;24.21;55.51
24762;BME280;12865;51.934;10.330;2022-09-09T12:10:54;98577.84;;;24.29;54.68
24762;BME280;12865;51.934;10.330;2022-09-09T12:13:52;98582.47;;;24.29;54.72
24762;BME280;12865;51.934;10.330;2022-09-09T12:16:38;98586.34;;;24.61;54.54
24762;BME280;12865;51.934;10.330;2022-09-09T12:19:25;98585.72;;;24.42;54.60
24762;BME280;12865;51.934;10.330;2022-09-09T12:25:45;98583.50;;;23.47;59.13
24762;BME280;12865;51.934;10.330;2022-09-09T12:31:46;98577.09;;;22.54;70.39
24762;BME280;12865;51.934;10.330;2022-09-09T12:34:54;98573.41;;;22.48;71.81
24762;BME280;12865;51.934;10.330;2022-09-09T12:37:52;98571.44;;;22.55;73.51
24762;BME280;12865;51.934;10.330;2022-09-09T12:40:42;98565.72;;;22.87;73.69
24762;BME280;12865;51.934;10.330;2022-09-09T12:43:28;98565.59;;;22.93;68.85
24762;BME280;12865;51.934;10.330;2022-09-09T12:52:32;98568.66;;;23.43;66.04
24762;BME280;12865;51.934;10.330;2022-09-09T12:55:27;98566.44;;;23.64;64.48
24762;BME280;12865;51.934;10.330;2022-09-09T12:58:17;98567.63;;;23.44;63.27
24762;BME280;12865;51.934;10.330;2022-09-09T13:01:05;98558.06;;;23.54;65.23
24762;BME280;12865;51.934;10.330;2022-09-09T13:03:51;98565.00;;;23.73;64.50
24762;BME280;12865;51.934;10.330;2022-09-09T13:06:37;98548.75;;;23.78;62.54
24762;BME280;12865;51.934;10.330;2022-09-09T13:09:23;98562.66;;;23.06;61.17
24762;BME280;12865;51.934;10.330;2022-09-09T13:12:21;98563.84;;;23.45;62.34
24762;BME280;12865;51.934;10.330;2022-09-09T13:15:21;98568.44;;;23.68;62.03
24762;BME280;12865;51.934;10.330;2022-09-09T13:18:13;98564.31;;;23.66;57.76
24762;BME280;12865;51.934;10.330;2022-09-09T13:20:59;98576.25;;;23.30;60.22
24762;BME280;12865;51.934;10.330;2022-09-09T13:23:50;98573.88;;;23.68;59.00
24762;BME280;12865;51.934;10.330;2022-09-09T13:26:37;98560.66;;;23.60;59.17
24762;BME280;12865;51.934;10.330;2022-09-09T13:29:24;98563.34;;;23.72;55.04
24762;BME280;12865;51.934;10.330;2022-09-09T13:32:17;98559.38;;;23.91;55.15
24762;BME280;12865;51.934;10.330;2022-09-09T13:35:03;98560.19;;;24.03;54.31
24762;BME280;12865;51.934;10.330;2022-09-09T13:37:49;98556.09;;;23.89;53.80
24762;BME280;12865;51.934;10.330;2022-09-09T13:40:35;98547.69;;;23.79;54.25
24762;BME280;12865;51.934;10.330;2022-09-09T13:43:23;98550.22;;;23.69;54.26
24762;BME280;12865;51.934;10.330;2022-09-09T13:49:23;98540.88;;;23.41;53.39
24762;BME280;12865;51.934;10.330;2022-09-09T13:52:10;98544.19;;;23.20;51.95
24762;BME280;12865;51.934;10.330;2022-09-09T13:54:57;98545.06;;;22.97;52.40
24762;BME280;12865;51.934;10.330;2022-09-09T13:58:00;98540.13;;;22.64;54.33
24762;BME280;12865;51.934;10.330;2022-09-09T14:00:46;98539.28;;;22.64;53.29
24762;BME280;12865;51.934;10.330;2022-09-09T14:03:32;98543.13;;;22.75;53.76
24762;BME280;12865;51.934;10.330;2022-09-09T14:06:19;98539.59;;;22.86;53.14
24762;BME280;12865;51.934;10.330;2022-09-09T14:09:10;98540.31;;;23.16;52.78
24762;BME280;12865;51.934;10.330;2022-09-09T14:11:56;98533.94;;;23.10;52.78
24762;BME280;12865;51.934;10.330;2022-09-09T14:14:43;98529.06;;;23.36;52.01
24762;BME280;12865;51.934;10.330;2022-09-09T14:17:29;98538.25;;;23.70;52.40
24762;BME280;12865;51.934;10.330;2022-09-09T14:20:15;98536.59;;;23.97;50.88
24762;BME280;12865;51.934;10.330;2022-09-09T14:23:02;98525.00;;;23.73;51.17
24762;BME280;12865;51.934;10.330;2022-09-09T14:25:48;98522.78;;;24.27;52.37
24762;BME280;12865;51.934;10.330;2022-09-09T14:28:35;98524.72;;;24.43;50.16
24762;BME280;12865;51.934;10.330;2022-09-09T14:31:22;98533.16;;;24.58;50.51
24762;BME280;12865;51.934;10.330;2022-09-09T14:34:08;98548.09;;;24.56;49.52
24762;BME280;12865;51.934;10.330;2022-09-09T14:36:55;98552.41;;;24.52;46.14
24762;BME280;12865;51.934;10.330;2022-09-09T14:39:41;98546.75;;;24.42;45.41
24762;BME280;12865;51.934;10.330;2022-09-09T14:42:29;98553.97;;;24.19;44.17
24762;BME280;12865;51.934;10.330;2022-09-09T14:45:15;98556.81;;;24.24;46.55
24762;BME280;12865;51.934;10.330;2022-09-09T14:48:01;98547.72;;;24.07;47.74
24762;BME280;12865;51.934;10.330;2022-09-09T14:50:48;98552.34;;;24.07;46.17
24762;BME280;12865;51.934;10.330;2022-09-09T14:53:34;98538.97;;;23.65;47.77
24762;BME280;12865;51.934;10.330;2022-09-09T14:56:22;98540.13;;;23.81;47.78
24762;BME280;12865;51.934;10.330;2022-09-09T14:59:08;98552.38;;;23.95;48.31
24762;BME280;12865;51.934;10.330;2022-09-09T15:01:54;98548.38;;;23.86;48.65
24762;BME280;12865;51.934;10.330;2022-09-09T15:04:39;98541.22;;;23.68;49.68
24762;BME280;12865;51.934;10.330;2022-09-09T15:07:25;98544.50;;;23.70;50.20
24762;BME280;12865;51.934;10.330;2022-09-09T15:10:12;98551.88;;;23.58;49.66
24762;BME280;12865;51.934;10.330;2022-09-09T15:12:57;98550.59;;;23.61;50.00
24762;BME280;12865;51.934;10.330;2022-09-09T15:15:43;98543.63;;;23.30;50.16
24762;BME280;12865;51.934;10.330;2022-09-09T15:18:29;98539.97;;;23.24;48.24
24762;BME280;12865;51.934;10.330;2022-09-09T15:21:17;98547.88;;;23.49;49.22
24762;BME280;12865;51.934;10.330;2022-09-09T15:24:05;98543.13;;;23.56;50.14
24762;BME280;12865;51.934;10.330;2022-09-09T15:26:52;98539.44;;;23.74;50.05
24762;BME280;12865;51.934;10.330;2022-09-09T15:29:39;98530.09;;;23.98;49.54
24762;BME280;12865;51.934;10.330;2022-09-09T15:32:24;98536.19;;;23.88;48.21
24762;BME280;12865;51.934;10.330;2022-09-09T15:35:10;98534.97;;;23.96;48.64
24762;BME280;12865;51.934;10.330;2022-09-09T15:37:56;98541.66;;;24.17;49.03
24762;BME280;12865;51.934;10.330;2022-09-09T15:40:43;98543.56;;;23.76;49.35
24762;BME280;12865;51.934;10.330;2022-09-09T15:43:29;98547.28;;;23.99;49.71
24762;BME280;12865;51.934;10.330;2022-09-09T15:46:35;98559.50;;;23.96;49.57
24762;BME280;12865;51.934;10.330;2022-09-09T15:49:24;98549.91;;;23.54;50.21
24762;BME280;12865;51.934;10.330;2022-09-09T15:52:10;98556.03;;;23.14;51.05
24762;BME280;12865;51.934;10.330;2022-09-09T15:54:56;98550.59;;;22.91;52.27
24762;BME280;12865;51.934;10.330;2022-09-09T15:57:42;98556.44;;;22.64;53.22
24762;BME280;12865;51.934;10.330;2022-09-09T16:00:27;98548.25;;;22.53;54.84